createdAt,value
2019-05-11T00:01:20.542Z,78.50
2019-05-11T00:03:51.516Z,80.00
2019-05-11T00:06:22.565Z,78.87
2019-05-11T00:08:53.590Z,79.05
2019-05-11T00:11:24.679Z,78.60
2019-05-11T00:13:55.762Z,78.58
2019-05-11T00:16:26.786Z,78.53
2019-05-11T00:18:57.834Z,78.69
2019-05-11T00:21:28.907Z,79.26
2019-05-11T00:23:59.989Z,78.20
2019-05-11T00:26:31.231Z,79.08
2019-05-11T00:29:02.230Z,79.21
2019-05-11T00:31:33.353Z,79.59
2019-05-11T00:34:04.681Z,79.79
2019-05-11T00:36:35.728Z,80.31
2019-05-11T00:39:08.450Z,79.63
2019-05-11T00:41:39.576Z,79.57
2019-05-11T00:44:10.665Z,79.16
2019-05-11T00:46:41.816Z,78.80
2019-05-11T00:49:12.926Z,78.64
2019-05-11T00:51:43.983Z,79.14
2019-05-11T00:54:14.994Z,79.02
2019-05-11T00:56:46.016Z,78.33
2019-05-11T00:59:21.862Z,79.17
2019-05-11T01:01:49.760Z,79.04
2019-05-11T01:04:20.841Z,77.67
2019-05-11T01:06:51.996Z,78.45
2019-05-11T01:09:23.580Z,78.21
2019-05-11T01:11:54.756Z,77.72
2019-05-11T01:14:25.790Z,77.16
2019-05-11T01:16:56.928Z,77.16
2019-05-11T01:19:27.995Z,77.81
2019-05-11T01:21:59.023Z,79.23
2019-05-11T01:24:30.028Z,79.01
2019-05-11T01:27:02.124Z,78.04
2019-05-11T01:29:33.144Z,78.51
2019-05-11T01:32:04.191Z,78.29
2019-05-11T01:34:35.225Z,78.93
2019-05-11T01:37:06.341Z,79.33
2019-05-11T01:39:37.360Z,78.87
2019-05-11T01:42:08.405Z,79.56
2019-05-11T01:44:39.418Z,79.39
2019-05-11T01:47:10.438Z,79.81
2019-05-11T01:49:42.411Z,78.52
2019-05-11T01:52:13.378Z,77.77
2019-05-11T01:54:44.363Z,78.03
2019-05-11T01:57:15.357Z,78.13
2019-05-11T01:59:46.324Z,78.75
2019-05-11T02:02:17.582Z,78.96
2019-05-11T02:04:51.618Z,77.97
2019-05-11T02:07:23.007Z,79.70
2019-05-11T02:09:55.073Z,79.89
2019-05-11T02:12:26.110Z,78.92
2019-05-11T02:14:57.120Z,78.67
2019-05-11T02:17:28.115Z,78.92
2019-05-11T02:19:59.196Z,78.83
2019-05-11T02:22:30.276Z,77.74
2019-05-11T02:25:01.229Z,77.79
2019-05-11T02:27:32.701Z,77.11
2019-05-11T02:30:03.805Z,75.86
2019-05-11T02:32:34.895Z,76.35
2019-05-11T02:35:06.241Z,77.60
2019-05-11T02:37:37.241Z,76.91
2019-05-11T02:40:10.072Z,75.15
2019-05-11T02:42:41.630Z,77.68
2019-05-11T02:45:13.171Z,79.01
2019-05-11T02:47:44.333Z,77.68
2019-05-11T02:50:15.556Z,78.35
2019-05-11T02:52:47.004Z,78.15
2019-05-11T02:55:18.194Z,77.58
2019-05-11T02:57:49.200Z,78.66
2019-05-11T03:00:26.937Z,78.42
2019-05-11T03:03:00.885Z,77.92
2019-05-11T03:05:34.640Z,77.53
2019-05-11T03:08:06.132Z,77.35
2019-05-11T03:10:37.114Z,78.82
2019-05-11T03:13:08.114Z,78.24
2019-05-11T03:15:39.242Z,78.66
2019-05-11T03:18:10.457Z,78.78
2019-05-11T03:20:41.723Z,78.72
2019-05-11T03:23:12.704Z,77.26
2019-05-11T03:25:43.765Z,78.01
2019-05-11T03:28:14.833Z,77.71
2019-05-11T03:30:45.837Z,76.87
2019-05-11T03:33:16.849Z,76.52
2019-05-11T03:35:47.904Z,75.41
2019-05-11T03:38:18.904Z,78.30
2019-05-11T03:40:50.081Z,78.59
2019-05-11T03:43:21.116Z,76.14
2019-05-11T03:45:52.137Z,76.37
2019-05-11T03:48:23.111Z,76.80
2019-05-11T03:50:54.127Z,75.98
2019-05-11T03:53:25.156Z,77.67
2019-05-11T03:55:56.143Z,76.99
2019-05-11T03:58:27.575Z,76.86
2019-05-11T04:00:58.579Z,76.40
2019-05-11T04:03:30.711Z,76.62
2019-05-11T04:06:02.765Z,75.97
2019-05-11T04:08:33.959Z,77.70
2019-05-11T04:11:05.077Z,77.83
2019-05-11T04:13:36.143Z,77.20
2019-05-11T04:16:07.258Z,77.33
2019-05-11T04:18:38.315Z,76.62
2019-05-11T04:21:09.312Z,77.53
2019-05-11T04:23:40.326Z,76.49
2019-05-11T04:26:11.395Z,76.27
2019-05-11T04:28:42.553Z,75.72
2019-05-11T04:31:13.493Z,77.04
2019-05-11T04:33:44.506Z,76.67
2019-05-11T04:36:15.482Z,78.08
2019-05-11T04:38:46.454Z,78.44
2019-05-11T04:41:18.410Z,78.06
2019-05-11T04:43:49.438Z,80.52
2019-05-11T04:46:20.415Z,82.54
2019-05-11T04:48:51.484Z,83.88
2019-05-11T04:51:22.448Z,82.81
2019-05-11T04:53:53.529Z,82.60
2019-05-11T04:56:24.501Z,81.70
2019-05-11T04:58:55.498Z,81.81
2019-05-11T05:01:26.590Z,81.98
2019-05-11T05:04:12.227Z,82.26
2019-05-11T05:06:30.279Z,82.95
2019-05-11T05:09:03.652Z,82.03
2019-05-11T05:11:36.742Z,82.63
2019-05-11T05:14:08.358Z,81.64
2019-05-11T05:16:39.418Z,81.54
2019-05-11T05:19:10.528Z,80.72
2019-05-11T05:21:41.638Z,81.58
2019-05-11T05:24:12.667Z,83.32
2019-05-11T05:26:43.653Z,82.34
2019-05-11T05:29:14.927Z,82.41
2019-05-11T05:31:46.966Z,82.17
2019-05-11T05:34:17.955Z,81.59
2019-05-11T05:36:48.931Z,81.39
2019-05-11T05:39:20.117Z,83.49
2019-05-11T05:41:56.927Z,83.33
2019-05-11T05:44:27.459Z,85.27
2019-05-11T05:46:56.593Z,84.41
2019-05-11T05:49:27.586Z,84.16
2019-05-11T05:51:58.761Z,82.96
2019-05-11T05:54:29.909Z,83.72
2019-05-11T05:57:00.891Z,83.31
2019-05-11T05:59:31.885Z,83.10
2019-05-11T06:02:02.856Z,83.69
2019-05-11T06:04:34.319Z,83.84
2019-05-11T06:07:05.330Z,84.41
2019-05-11T06:09:36.681Z,85.12
2019-05-11T06:12:07.652Z,84.47
2019-05-11T06:14:38.667Z,85.17
2019-05-11T06:17:09.645Z,83.15
2019-05-11T06:19:40.625Z,84.35
2019-05-11T06:22:11.704Z,84.39
2019-05-11T06:24:42.710Z,86.38
2019-05-11T06:27:13.672Z,87.99
2019-05-11T06:29:44.655Z,88.92
2019-05-11T06:32:15.699Z,87.31
2019-05-11T06:34:46.692Z,86.60
2019-05-11T06:37:17.680Z,86.49
2019-05-11T06:39:48.742Z,86.04
2019-05-11T06:42:19.771Z,86.07
2019-05-11T06:44:50.801Z,84.80
2019-05-11T06:47:21.858Z,84.96
2019-05-11T06:49:54.100Z,84.01
2019-05-11T06:52:25.291Z,83.47
2019-05-11T06:54:56.464Z,81.92
2019-05-11T06:57:27.452Z,83.41
2019-05-11T06:59:58.501Z,83.23
2019-05-11T07:02:29.568Z,83.46
2019-05-11T07:05:00.563Z,83.85
2019-05-11T07:07:46.424Z,84.02
2019-05-11T07:10:04.892Z,84.09
2019-05-11T07:12:35.929Z,84.72
2019-05-11T07:15:07.591Z,84.45
2019-05-11T07:17:39.038Z,84.07
2019-05-11T07:20:10.894Z,84.09
2019-05-11T07:22:42.002Z,83.54
2019-05-11T07:25:13.567Z,83.41
2019-05-11T07:27:44.958Z,83.45
2019-05-11T07:30:17.175Z,82.40
2019-05-11T07:32:48.332Z,82.52
2019-05-11T07:35:19.522Z,82.43
2019-05-11T07:37:50.600Z,81.43
2019-05-11T07:40:21.700Z,80.69
2019-05-11T07:42:52.723Z,80.90
2019-05-11T07:45:23.919Z,80.71
2019-05-11T07:47:55.029Z,78.66
2019-05-11T07:50:28.366Z,79.79
2019-05-11T07:52:59.089Z,79.36
2019-05-11T07:55:30.293Z,80.09
2019-05-11T07:58:01.280Z,80.04
2019-05-11T08:00:36.342Z,79.57
2019-05-11T08:03:05.668Z,78.38
2019-05-11T08:05:38.579Z,76.83
2019-05-11T08:08:09.610Z,77.00
2019-05-11T08:10:40.639Z,75.67
2019-05-11T08:13:11.616Z,77.67
2019-05-11T08:15:42.784Z,76.05
2019-05-11T08:18:13.965Z,77.06
2019-05-11T08:20:47.747Z,78.04
2019-05-11T08:23:18.216Z,78.53
2019-05-11T08:25:49.586Z,78.51
2019-05-11T08:28:20.668Z,77.67
2019-05-11T08:30:51.825Z,76.81
2019-05-11T08:33:23.006Z,76.85
2019-05-11T08:35:54.041Z,76.33
2019-05-11T08:38:25.125Z,77.37
2019-05-11T08:40:56.166Z,76.72
2019-05-11T08:43:28.477Z,75.92
2019-05-11T08:45:59.852Z,76.77
2019-05-11T08:48:30.919Z,76.10
2019-05-11T08:51:01.903Z,77.10
2019-05-11T08:53:33.239Z,75.94
2019-05-11T08:56:04.385Z,76.39
2019-05-11T08:58:37.822Z,75.05
2019-05-11T09:01:08.934Z,74.62
2019-05-11T09:03:40.005Z,74.37
2019-05-11T09:06:11.167Z,72.60
2019-05-11T09:08:42.240Z,73.15
2019-05-11T09:11:13.271Z,71.20
2019-05-11T09:13:44.447Z,71.31
2019-05-11T09:16:18.640Z,69.56
2019-05-11T09:18:48.589Z,68.66
2019-05-11T09:21:20.017Z,67.40
2019-05-11T09:23:51.137Z,67.26
2019-05-11T09:26:22.589Z,65.74
2019-05-11T09:28:53.843Z,65.51
2019-05-11T09:31:24.855Z,63.58
2019-05-11T09:33:58.383Z,64.38
2019-05-11T09:36:29.192Z,63.91
2019-05-11T09:39:00.166Z,63.79
2019-05-11T09:41:31.260Z,62.12
2019-05-11T09:44:02.336Z,60.84
2019-05-11T09:46:33.438Z,61.11
2019-05-11T09:49:04.433Z,61.19
2019-05-11T09:51:37.815Z,61.54
2019-05-11T09:54:08.344Z,59.88
2019-05-11T09:56:39.557Z,61.73
2019-05-11T09:59:10.705Z,61.40
2019-05-11T10:01:41.875Z,60.57
2019-05-11T10:04:13.135Z,62.24
2019-05-11T10:06:44.336Z,61.45
2019-05-11T10:09:15.499Z,62.16
2019-05-11T10:11:48.011Z,62.24
2019-05-11T10:14:19.297Z,60.45
2019-05-11T10:16:50.384Z,61.64
2019-05-11T10:19:21.359Z,61.06
2019-05-11T10:21:52.458Z,60.94
2019-05-11T10:24:23.473Z,61.06
2019-05-11T10:26:54.640Z,60.33
2019-05-11T10:29:25.738Z,61.58
2019-05-11T10:31:58.759Z,62.54
2019-05-11T10:34:29.482Z,62.32
2019-05-11T10:37:00.690Z,61.37
2019-05-11T10:39:32.758Z,61.60
2019-05-11T10:42:03.871Z,62.53
2019-05-11T10:44:34.875Z,61.41
2019-05-11T10:47:08.059Z,61.80
2019-05-11T10:49:38.655Z,62.50
2019-05-11T10:52:09.909Z,61.14
2019-05-11T10:54:41.100Z,62.10
2019-05-11T10:57:12.248Z,61.30
2019-05-11T10:59:43.368Z,61.29
2019-05-11T11:02:14.545Z,61.47
2019-05-11T11:04:45.725Z,60.79
2019-05-11T11:07:19.268Z,60.17
2019-05-11T11:09:49.446Z,60.23
2019-05-11T11:12:20.464Z,60.65
2019-05-11T11:14:51.473Z,60.39
2019-05-11T11:17:22.495Z,59.51
2019-05-11T11:19:53.509Z,58.22
2019-05-11T11:22:37.028Z,58.70
2019-05-11T11:24:58.942Z,58.16
2019-05-11T11:27:30.155Z,59.49
2019-05-11T11:30:01.283Z,59.75
2019-05-11T11:32:32.461Z,61.29
2019-05-11T11:35:03.540Z,62.86
2019-05-11T11:37:34.716Z,62.45
2019-05-11T11:40:08.399Z,62.71
2019-05-11T11:42:39.471Z,61.60
2019-05-11T11:45:12.173Z,62.80
2019-05-11T11:47:43.283Z,60.68
2019-05-11T11:50:14.591Z,62.66
2019-05-11T11:52:47.571Z,60.82
2019-05-11T11:55:18.920Z,61.70
2019-05-11T11:57:51.104Z,60.50
2019-05-11T12:00:23.295Z,61.83
2019-05-11T12:02:54.383Z,62.99
2019-05-11T12:05:25.366Z,62.25
2019-05-11T12:07:58.045Z,64.30
2019-05-11T12:10:30.217Z,65.85
2019-05-11T12:13:01.414Z,65.58
2019-05-11T12:15:33.098Z,65.12
2019-05-11T12:18:04.236Z,65.46
2019-05-11T12:20:35.371Z,65.91
2019-05-11T12:23:08.569Z,65.53
2019-05-11T12:25:40.579Z,65.43
2019-05-11T12:28:11.941Z,65.54
2019-05-11T12:30:43.075Z,66.71
2019-05-11T12:33:14.242Z,66.59
2019-05-11T12:35:45.417Z,67.63
2019-05-11T12:38:18.297Z,66.72
2019-05-11T12:40:50.500Z,67.69
2019-05-11T12:43:22.624Z,68.98
2019-05-11T12:45:54.031Z,70.30
2019-05-11T12:48:25.099Z,71.04
2019-05-11T12:50:58.639Z,70.24
2019-05-11T12:53:29.225Z,72.31
2019-05-11T12:56:00.379Z,72.92
2019-05-11T12:58:31.662Z,71.15
2019-05-11T13:01:02.741Z,70.08
2019-05-11T13:03:33.764Z,67.62
2019-05-11T13:06:05.067Z,68.63
2019-05-11T13:08:36.237Z,67.49
2019-05-11T13:11:07.989Z,66.82
2019-05-11T13:13:39.163Z,63.94
2019-05-11T13:16:10.144Z,64.13
2019-05-11T13:18:41.151Z,63.41
2019-05-11T13:21:12.297Z,62.03
2019-05-11T13:23:43.519Z,63.43
2019-05-11T13:26:14.683Z,62.46
2019-05-11T13:28:48.143Z,62.96
2019-05-11T13:31:18.954Z,63.04
2019-05-11T13:33:51.341Z,63.73
2019-05-11T13:36:22.428Z,61.58
2019-05-11T13:38:54.533Z,62.38
2019-05-11T13:41:27.464Z,61.32
2019-05-11T13:43:58.725Z,60.97
2019-05-11T13:46:29.731Z,56.21
2019-05-11T13:49:00.734Z,58.42
2019-05-11T13:51:31.917Z,58.36
2019-05-11T13:54:02.970Z,60.89
2019-05-11T13:56:33.951Z,60.34
2019-05-11T13:59:10.664Z,59.78
2019-05-11T14:01:42.972Z,59.35
2019-05-11T14:04:13.968Z,59.22
2019-05-11T14:06:44.939Z,60.88
2019-05-11T14:09:18.254Z,61.59
2019-05-11T14:11:49.191Z,61.69
2019-05-11T14:14:20.348Z,61.18
2019-05-11T14:16:51.295Z,62.12
2019-05-11T14:19:22.689Z,62.82
2019-05-11T14:21:53.701Z,62.32
2019-05-11T14:24:25.206Z,61.75
2019-05-11T14:26:58.060Z,57.59
2019-05-11T14:29:29.010Z,54.64
2019-05-11T14:32:00.142Z,55.56
2019-05-11T14:34:31.302Z,56.29
2019-05-11T14:37:02.491Z,56.14
2019-05-11T14:39:33.542Z,55.29
2019-05-11T14:42:04.757Z,55.84
2019-05-11T14:44:37.741Z,55.70
2019-05-11T14:47:08.699Z,56.19
2019-05-11T14:49:39.831Z,55.74
2019-05-11T14:52:10.928Z,55.75
2019-05-11T14:54:42.452Z,56.01
2019-05-11T14:57:13.466Z,58.20
2019-05-11T14:59:44.751Z,57.26
2019-05-11T15:02:33.392Z,57.81
2019-05-11T15:05:04.671Z,58.61
2019-05-11T15:07:38.515Z,58.86
2019-05-11T15:10:10.836Z,57.85
2019-05-11T15:12:42.289Z,58.60
2019-05-11T15:15:13.942Z,59.10
2019-05-11T15:17:45.141Z,58.43
2019-05-11T15:20:17.730Z,58.76
2019-05-11T15:22:49.201Z,59.27
2019-05-11T15:25:21.454Z,59.41
2019-05-11T15:27:52.707Z,60.13
2019-05-11T15:30:24.191Z,59.49
2019-05-11T15:32:55.314Z,62.50
2019-05-11T15:35:28.251Z,61.32
2019-05-11T15:37:59.123Z,61.54
2019-05-11T15:40:30.226Z,61.22
2019-05-11T15:43:01.389Z,60.67
2019-05-11T15:45:32.500Z,60.52
2019-05-11T15:48:03.534Z,60.31
2019-05-11T15:50:34.930Z,61.15
2019-05-11T15:53:08.495Z,60.70
2019-05-11T15:55:42.277Z,61.37
2019-05-11T15:58:11.584Z,60.32
2019-05-11T16:00:42.705Z,59.57
2019-05-11T16:03:13.872Z,60.05
2019-05-11T16:05:45.128Z,59.43
2019-05-11T16:08:18.592Z,58.90
2019-05-11T16:10:49.321Z,58.37
2019-05-11T16:13:20.655Z,59.79
2019-05-11T16:15:51.815Z,59.40
2019-05-11T16:18:22.769Z,58.32
2019-05-11T16:20:53.867Z,57.71
2019-05-11T16:23:25.172Z,57.54
2019-05-11T16:25:58.069Z,58.46
2019-05-11T16:28:30.857Z,58.28
2019-05-11T16:31:01.895Z,58.91
2019-05-11T16:33:34.029Z,59.08
2019-05-11T16:36:09.043Z,58.10
2019-05-11T16:38:39.218Z,57.72
2019-05-11T16:41:10.313Z,57.96
2019-05-11T16:43:41.560Z,58.13
2019-05-11T16:46:12.751Z,58.27
2019-05-11T16:48:43.841Z,58.94
2019-05-11T16:51:14.908Z,58.65
2019-05-11T16:53:47.953Z,58.66
2019-05-11T16:56:19.679Z,58.83
2019-05-11T16:58:54.178Z,57.04
2019-05-11T17:01:23.872Z,57.81
2019-05-11T17:03:54.853Z,57.58
2019-05-11T17:17:28.437Z,56.50
2019-05-11T17:19:59.874Z,56.69
2019-05-11T17:22:31.088Z,56.07
2019-05-11T17:25:02.160Z,55.75
2019-05-11T17:27:34.474Z,55.47
2019-05-11T17:30:08.590Z,55.79
2019-05-11T17:32:39.809Z,56.13
2019-05-11T17:35:11.467Z,57.13
2019-05-11T17:37:42.600Z,56.37
2019-05-11T17:40:14.129Z,57.49
2019-05-11T17:42:47.391Z,57.37
2019-05-11T17:45:18.827Z,56.61
2019-05-11T17:47:50.333Z,57.36
2019-05-11T17:50:21.565Z,57.14
2019-05-11T17:52:52.705Z,58.24
2019-05-11T17:55:23.807Z,57.81
2019-05-11T17:57:54.866Z,58.38
2019-05-11T18:00:28.125Z,58.37
2019-05-11T18:02:58.991Z,58.41
2019-05-11T18:05:30.211Z,57.80
2019-05-11T18:08:01.326Z,57.90
2019-05-11T18:10:32.450Z,57.82
2019-05-11T18:13:04.275Z,58.81
2019-05-11T18:15:37.850Z,58.81
2019-05-11T18:18:09.394Z,59.13
2019-05-11T18:20:41.825Z,58.72
2019-05-11T18:23:12.868Z,58.47
2019-05-11T18:25:44.467Z,58.65
2019-05-11T18:28:18.000Z,58.03
2019-05-11T18:30:49.679Z,59.07
2019-05-11T18:33:20.732Z,59.26
2019-05-11T18:35:51.899Z,60.01
2019-05-11T18:38:22.924Z,60.91
2019-05-11T18:40:53.950Z,60.46
2019-05-11T18:43:25.012Z,60.90
2019-05-11T18:45:58.081Z,61.39
2019-05-11T18:48:29.261Z,62.54
2019-05-11T18:51:00.577Z,62.90
2019-05-11T18:53:31.825Z,62.41
2019-05-11T18:56:02.988Z,63.08
2019-05-11T18:58:34.047Z,62.02
2019-05-11T19:01:05.087Z,62.09
2019-05-11T19:03:38.481Z,62.01
2019-05-11T19:06:10.983Z,62.63
2019-05-11T19:08:42.051Z,62.50
2019-05-11T19:11:13.078Z,62.84
2019-05-11T19:13:44.242Z,62.60
2019-05-11T19:16:15.341Z,62.04
2019-05-11T19:18:48.027Z,61.96
2019-05-11T19:21:19.162Z,61.95
2019-05-11T19:23:50.175Z,61.86
2019-05-11T19:26:21.424Z,62.29
2019-05-11T19:28:52.445Z,61.89
2019-05-11T19:31:23.569Z,61.41
2019-05-11T19:33:54.642Z,61.92
2019-05-11T19:36:27.715Z,62.92
2019-05-11T19:38:58.568Z,63.24
2019-05-11T19:41:29.754Z,62.87
2019-05-11T19:44:00.795Z,63.19
2019-05-11T19:46:31.886Z,62.82
2019-05-11T19:49:03.012Z,62.76
2019-05-11T19:51:33.998Z,62.70
2019-05-11T19:54:05.087Z,61.79
2019-05-11T19:56:38.325Z,62.51
2019-05-11T19:59:09.265Z,62.56
2019-05-11T20:01:40.409Z,62.90
2019-05-11T20:04:11.943Z,62.58
2019-05-11T20:06:43.041Z,62.44
2019-05-11T20:09:15.357Z,63.12
2019-05-11T20:11:47.634Z,63.26
2019-05-11T20:14:18.957Z,63.17
2019-05-11T20:16:49.966Z,63.54
2019-05-11T20:19:21.478Z,63.97
2019-05-11T20:21:52.519Z,63.40
2019-05-11T20:24:25.210Z,62.77
2019-05-11T20:26:56.337Z,63.58
2019-05-11T20:29:27.831Z,63.96
2019-05-11T20:31:58.952Z,64.12
2019-05-11T20:34:30.230Z,64.42
2019-05-11T20:37:01.314Z,63.77
2019-05-11T20:39:32.838Z,63.54
2019-05-11T20:42:03.917Z,62.98
2019-05-11T20:44:35.002Z,63.64
2019-05-11T20:47:06.115Z,63.18
2019-05-11T20:49:38.667Z,64.19
2019-05-11T20:52:10.021Z,64.41
2019-05-11T20:54:41.148Z,64.79
2019-05-11T20:57:12.324Z,65.31
2019-05-11T20:59:43.555Z,64.24
2019-05-11T21:02:14.569Z,64.96
2019-05-11T21:04:45.837Z,64.89
2019-05-11T21:07:16.831Z,64.48
2019-05-11T21:09:48.389Z,65.41
2019-05-11T21:12:19.486Z,65.57
2019-05-11T21:14:50.741Z,65.77
2019-05-11T21:17:21.825Z,66.27
2019-05-11T21:19:52.903Z,66.60
2019-05-11T21:22:24.018Z,66.81
2019-05-11T21:24:55.034Z,66.70
2019-05-11T21:27:28.217Z,66.72
2019-05-11T21:29:59.030Z,66.70
2019-05-11T21:32:30.137Z,68.46
2019-05-11T21:35:01.227Z,68.41
2019-05-11T21:37:32.293Z,68.87
2019-05-11T21:40:03.828Z,68.62
2019-05-11T21:42:35.076Z,68.04
2019-05-11T21:45:09.137Z,68.50
2019-05-11T21:47:39.862Z,70.10
2019-05-11T21:50:11.716Z,70.00
2019-05-11T21:52:42.835Z,69.64
2019-05-11T21:55:14.106Z,70.52
2019-05-11T21:57:49.420Z,69.77
2019-05-11T22:00:18.966Z,70.74
2019-05-11T22:02:51.831Z,70.58
2019-05-11T22:05:22.837Z,71.32
2019-05-11T22:07:53.988Z,71.02
2019-05-11T22:10:25.031Z,71.16
2019-05-11T22:12:56.059Z,71.22
2019-05-11T22:15:28.393Z,70.53
2019-05-11T22:18:01.073Z,70.87
2019-05-11T22:20:32.182Z,71.38
2019-05-11T22:23:03.289Z,70.95
2019-05-11T22:25:34.367Z,72.61
2019-05-11T22:28:05.341Z,71.84
2019-05-11T22:30:39.064Z,72.29
2019-05-11T22:33:09.457Z,72.02
2019-05-11T22:35:40.737Z,72.74
2019-05-11T22:38:11.798Z,72.47
2019-05-11T22:40:43.346Z,71.51
2019-05-11T22:43:14.624Z,72.26
2019-05-11T22:45:46.089Z,71.83
2019-05-11T22:48:17.231Z,72.46
2019-05-11T22:50:50.524Z,72.56
2019-05-11T22:53:21.137Z,73.28
2019-05-11T22:55:52.205Z,73.57
2019-05-11T22:58:23.241Z,73.77
2019-05-11T23:00:54.217Z,74.00
2019-05-11T23:03:27.696Z,74.08
2019-05-11T23:05:58.253Z,73.80
2019-05-11T23:08:29.599Z,75.15
2019-05-11T23:11:00.630Z,76.24
2019-05-11T23:13:31.663Z,75.82
2019-05-11T23:16:02.830Z,77.43
2019-05-11T23:18:33.915Z,77.33
2019-05-11T23:23:42.185Z,78.64
2019-05-11T23:26:13.250Z,79.74
2019-05-11T23:28:44.295Z,79.50
2019-05-11T23:31:15.277Z,78.52
2019-05-11T23:33:46.285Z,78.79
2019-05-11T23:36:18.300Z,78.76
2019-05-11T23:38:49.461Z,78.56
2019-05-11T23:41:24.503Z,79.23
2019-05-11T23:43:53.309Z,80.44
2019-05-11T23:46:24.330Z,80.64
2019-05-11T23:48:55.301Z,81.13
2019-05-11T23:51:28.333Z,79.66
2019-05-11T23:53:59.480Z,80.09
2019-05-11T23:56:30.449Z,80.20
2019-05-11T23:59:01.543Z,79.69
